Aérodrome :
LOGIN :

S'inscrire | Disclaimer

   EN    FR    IT 

 










Légende :    VFR   VFR Marginal   IFR   IFR Intensif   IFR Très Intensif
Visi : 
Plafond : 
>= 8 km
>= 3000ft
5 à 8 km
1000 à 3000 ft
1500m à 5 km
500 à 1000 ft
800 à 1500m
200 à 500 ft
< 800m
< 200 ft
Symboles :   Orages  Brouillard  Fortes neiges  Fortes précipitations  Vent > 20 kt
SIGMETs :   Divers  Orages  Givrage  Turbulence  Onde Orograph.  Cendres Volcan.






- Altitude de l'aérodrome : 276 ft


LYVR - Vršac International

DERNIER METAR :
  • 220700Z 15018G39KT CAVOK 23/10 Q1017 NOSIG

METARs EXPIRÉS :
  • 220630Z 14020G37KT CAVOK 22/10 Q1017 NOSIG
  • 220600Z 14021G31KT CAVOK 22/10 Q1017 NOSIG
  • 220530Z 14022G35KT CAVOK 21/10 Q1017 NOSIG
  • 220500Z 14024G37KT CAVOK 21/10 Q1017
  • 220430Z 14025G38KT CAVOK 21/10 Q1016

TAF TAF LYVR
Valide du 22 à 06h jusqu'au 23 à 06h UTC


220500Z 2206/2306 14015G25KT CAVOK TX28/2213Z TN20/2304Z
TEMPO 2206/2212 13028G38KT
BECMG 2212/2215 12008KT
BECMG 2221/2223 14015G30KT



MET'MAP, la Météo Aéronautique d'un coup d'oeil ! - Copyright ORBIFLY Décembre 2007 - Disclaimer

ORBIFLY MET'MAP TEAM :

Programmation & Développement : Alexandra Zaïnal
Sur une idée originale de : Baudouin d'Aumeries
Assistance à la programmation : Marc-Olivier Méhu
Soutien technique & logistique : Manuel Goepfert

Contact : metmap@orbifly.com




SOURCES & CREDITS :

   NOAA